Time,TemperatureF,DewpointF,PressureIn,WindDirection,WindDirectionDegrees,WindSpeedMPH,WindSpeedGustMPH,Humidity,HourlyPrecipIn,Conditions,Clouds,dailyrainin,SoftwareType,DateUTC
2013-08-13 00:12:00,63.5,62.9,29.77,NE,45,1.7,-999.0,98,-99.99,,,0.00,Acu-Link.com,2013-08-13 04:12:00,
2013-08-13 00:27:00,63.3,62.7,29.77,West,270,0.0,-999.0,98,-99.99,,,0.00,Acu-Link.com,2013-08-13 04:27:00,
2013-08-13 00:42:00,63.5,62.9,29.76,South,180,1.7,-999.0,98,-99.99,,,0.00,Acu-Link.com,2013-08-13 04:42:00,
2013-08-13 00:57:00,63.5,62.9,29.75,SSE,157,1.7,-999.0,98,-99.99,,,0.00,Acu-Link.com,2013-08-13 04:57:00,
2013-08-13 01:13:00,63.7,63.1,29.74,NNE,22,0.0,-999.0,98,-99.99,,,0.00,Acu-Link.com,2013-08-13 05:13:00,
2013-08-13 01:28:00,63.7,63.1,29.74,NNE,22,0.0,-999.0,98,-99.99,,,0.00,Acu-Link.com,2013-08-13 05:28:00,
2013-08-13 01:43:00,63.7,63.1,29.73,WNW,292,0.0,-999.0,98,-99.99,,,0.00,Acu-Link.com,2013-08-13 05:43:00,
2013-08-13 01:58:00,63.5,62.9,29.72,NNE,22,0.0,-999.0,98,-99.99,,,0.00,Acu-Link.com,2013-08-13 05:58:00,
2013-08-13 02:13:00,63.5,62.9,29.72,NE,45,0.0,-999.0,98,-99.99,,,0.00,Acu-Link.com,2013-08-13 06:13:00,
2013-08-13 02:28:00,63.5,62.9,29.72,NE,45,0.0,-999.0,98,-99.99,,,0.00,Acu-Link.com,2013-08-13 06:28:00,
2013-08-13 02:43:00,63.5,62.9,29.71,NNE,22,0.0,-999.0,98,-99.99,,,0.00,Acu-Link.com,2013-08-13 06:43:00,
2013-08-13 02:58:00,63.5,62.9,29.69,East,90,0.0,-999.0,98,-99.99,,,0.00,Acu-Link.com,2013-08-13 06:58:00,
2013-08-13 03:13:00,63.7,63.1,29.69,North,0,0.0,-999.0,98,-99.99,,,0.00,Acu-Link.com,2013-08-13 07:13:00,
2013-08-13 03:29:00,63.7,63.1,29.70,North,0,0.0,-999.0,98,-99.99,,,0.00,Acu-Link.com,2013-08-13 07:29:00,
2013-08-13 03:44:00,63.7,63.1,29.69,West,270,0.0,-999.0,98,-99.99,,,0.00,Acu-Link.com,2013-08-13 07:44:00,
2013-08-13 03:59:00,63.7,63.1,29.69,ESE,112,0.0,-999.0,98,-99.99,,,0.00,Acu-Link.com,2013-08-13 07:59:00,
2013-08-13 04:14:00,64.4,63.8,29.69,South,180,0.0,-999.0,98,-99.99,,,0.00,Acu-Link.com,2013-08-13 08:14:00,
2013-08-13 04:29:00,64.4,63.8,29.69,SW,225,0.0,-999.0,98,-99.99,,,0.00,Acu-Link.com,2013-08-13 08:29:00,
2013-08-13 04:44:00,64.4,63.8,29.69,West,270,1.7,-999.0,98,-99.99,,,0.00,Acu-Link.com,2013-08-13 08:44:00,
2013-08-13 04:59:00,64.4,63.8,29.69,SSE,157,1.7,-999.0,98,-99.99,,,0.02,Acu-Link.com,2013-08-13 08:59:00,
2013-08-13 05:14:00,64.2,63.6,29.70,NNW,337,1.7,-999.0,98,-99.99,,,0.05,Acu-Link.com,2013-08-13 09:14:00,
2013-08-13 05:29:00,64.4,63.8,29.69,SSW,202,0.0,-999.0,98,-99.99,,,0.07,Acu-Link.com,2013-08-13 09:29:00,
2013-08-13 05:45:00,64.0,63.4,29.68,SSW,202,0.0,-999.0,98,-99.99,,,0.13,Acu-Link.com,2013-08-13 09:45:00,
2013-08-13 06:00:00,63.9,63.3,29.69,SE,135,4.2,-999.0,98,-99.99,,,0.16,Acu-Link.com,2013-08-13 10:00:00,
2013-08-13 06:15:00,63.7,63.1,29.69,South,180,1.7,-999.0,98,-99.99,,,0.18,Acu-Link.com,2013-08-13 10:15:00,
2013-08-13 06:30:00,63.7,63.1,29.68,SSW,202,0.0,-999.0,98,-99.99,,,0.24,Acu-Link.com,2013-08-13 10:30:00,
2013-08-13 06:45:00,63.5,62.9,29.69,SSE,157,1.1,-999.0,98,-99.99,,,0.39,Acu-Link.com,2013-08-13 10:45:00,
2013-08-13 07:00:00,63.3,62.7,29.69,East,90,0.0,-999.0,98,-99.99,,,0.44,Acu-Link.com,2013-08-13 11:00:00,
2013-08-13 07:15:00,63.3,62.7,29.68,SSW,202,0.0,-999.0,98,-99.99,,,0.48,Acu-Link.com,2013-08-13 11:15:00,
2013-08-13 07:31:00,63.3,62.7,29.66,West,270,0.0,-999.0,98,-99.99,,,0.56,Acu-Link.com,2013-08-13 11:31:00,
2013-08-13 07:46:00,63.3,62.7,29.66,NE,45,0.0,-999.0,98,-99.99,,,0.61,Acu-Link.com,2013-08-13 11:46:00,
2013-08-13 08:01:00,63.5,62.9,29.65,North,0,0.0,-999.0,98,-99.99,,,0.62,Acu-Link.com,2013-08-13 12:01:00,
2013-08-13 08:16:00,64.0,63.4,29.64,SSW,202,0.0,-999.0,98,-99.99,,,0.63,Acu-Link.com,2013-08-13 12:16:00,
2013-08-13 08:31:00,64.6,64.0,29.64,NNW,337,0.0,-999.0,98,-99.99,,,0.63,Acu-Link.com,2013-08-13 12:31:00,
2013-08-13 08:46:00,64.9,64.3,29.64,WSW,247,0.0,-999.0,98,-99.99,,,0.63,Acu-Link.com,2013-08-13 12:46:00,
2013-08-13 09:01:00,65.5,64.9,29.64,SSW,202,0.0,-999.0,98,-99.99,,,0.63,Acu-Link.com,2013-08-13 13:01:00,
2013-08-13 09:16:00,66.4,65.8,29.64,ESE,112,0.0,-999.0,98,-99.99,,,0.63,Acu-Link.com,2013-08-13 13:16:00,
2013-08-13 09:31:00,67.1,66.5,29.64,SW,225,0.0,-999.0,98,-99.99,,,0.63,Acu-Link.com,2013-08-13 13:31:00,
2013-08-13 09:47:00,69.6,69.0,29.65,NE,45,0.0,-999.0,98,-99.99,,,0.63,Acu-Link.com,2013-08-13 13:47:00,
2013-08-13 10:02:00,70.7,70.1,29.65,West,270,0.0,-999.0,98,-99.99,,,0.63,Acu-Link.com,2013-08-13 14:02:00,
2013-08-13 10:17:00,72.0,71.4,29.65,NNW,337,0.0,-999.0,98,-99.99,,,0.63,Acu-Link.com,2013-08-13 14:17:00,
2013-08-13 10:32:00,70.5,69.9,29.65,ESE,112,0.0,-999.0,98,-99.99,,,0.63,Acu-Link.com,2013-08-13 14:32:00,
2013-08-13 10:47:00,70.0,69.4,29.65,SW,225,0.0,-999.0,98,-99.99,,,0.63,Acu-Link.com,2013-08-13 14:47:00,
2013-08-13 11:02:00,70.2,69.6,29.65,SW,225,0.0,-999.0,98,-99.99,,,0.63,Acu-Link.com,2013-08-13 15:02:00,
2013-08-13 11:17:00,72.1,71.5,29.64,WNW,292,0.0,-999.0,98,-99.99,,,0.63,Acu-Link.com,2013-08-13 15:17:00,
2013-08-13 11:32:00,71.4,70.8,29.65,WNW,292,0.0,-999.0,98,-99.99,,,0.63,Acu-Link.com,2013-08-13 15:32:00,
2013-08-13 11:47:00,73.2,72.6,29.63,SW,225,0.0,-999.0,98,-99.99,,,0.63,Acu-Link.com,2013-08-13 15:47:00,
2013-08-13 12:03:00,75.6,75.0,29.63,ENE,67,0.0,-999.0,98,-99.99,,,0.63,Acu-Link.com,2013-08-13 16:03:00,
2013-08-13 12:18:00,74.5,73.9,29.62,NNE,22,0.0,-999.0,98,-99.99,,,0.63,Acu-Link.com,2013-08-13 16:18:00,
2013-08-13 12:33:00,74.7,74.1,29.62,NNW,337,0.0,-999.0,98,-99.99,,,0.63,Acu-Link.com,2013-08-13 16:33:00,
2013-08-13 12:48:00,77.0,76.4,29.61,ESE,112,0.0,-999.0,98,-99.99,,,0.63,Acu-Link.com,2013-08-13 16:48:00,
2013-08-13 13:03:00,75.4,74.8,29.61,NNE,22,2.2,-999.0,98,-99.99,,,0.64,Acu-Link.com,2013-08-13 17:03:00,
2013-08-13 13:18:00,75.4,74.8,29.60,NNE,22,2.2,-999.0,98,-99.99,,,0.64,Acu-Link.com,2013-08-13 17:18:00,
2013-08-13 13:33:00,74.1,73.5,29.60,WNW,292,0.0,-999.0,98,-99.99,,,0.64,Acu-Link.com,2013-08-13 17:33:00,
2013-08-13 13:48:00,71.4,70.8,29.60,NNE,22,2.2,-999.0,98,-99.99,,,0.64,Acu-Link.com,2013-08-13 17:48:00,
2013-08-13 14:03:00,79.0,78.4,29.60,ESE,112,1.7,-999.0,98,-99.99,,,0.64,Acu-Link.com,2013-08-13 18:03:00,
2013-08-13 14:18:00,82.4,81.8,29.59,NE,45,3.2,-999.0,98,-99.99,,,0.64,Acu-Link.com,2013-08-13 18:18:00,
2013-08-13 14:34:00,82.8,82.2,29.59,NE,45,1.7,-999.0,98,-99.99,,,0.64,Acu-Link.com,2013-08-13 18:34:00,
2013-08-13 14:49:00,82.0,81.4,29.58,East,90,1.7,-999.0,98,-99.99,,,0.64,Acu-Link.com,2013-08-13 18:49:00,
2013-08-13 15:04:00,79.3,78.7,29.57,SSE,157,0.0,-999.0,98,-99.99,,,0.64,Acu-Link.com,2013-08-13 19:04:00,
2013-08-13 15:19:00,77.2,76.6,29.57,NNE,22,0.0,-999.0,98,-99.99,,,0.64,Acu-Link.com,2013-08-13 19:19:00,
2013-08-13 15:34:00,74.7,74.1,29.58,ESE,112,1.7,-999.0,98,-99.99,,,0.64,Acu-Link.com,2013-08-13 19:34:00,
2013-08-13 15:49:00,68.9,68.3,29.59,NNW,337,2.7,-999.0,98,-99.99,,,1.17,Acu-Link.com,2013-08-13 19:49:00,
2013-08-13 16:04:00,68.9,68.3,29.59,NNW,337,0.0,-999.0,98,-99.99,,,1.21,Acu-Link.com,2013-08-13 20:04:00,
2013-08-13 16:19:00,70.3,69.7,29.59,NW,315,2.7,-999.0,98,-99.99,,,1.21,Acu-Link.com,2013-08-13 20:19:00,
2013-08-13 16:34:00,71.2,70.6,29.58,NW,315,4.2,-999.0,98,-99.99,,,1.21,Acu-Link.com,2013-08-13 20:34:00,
2013-08-13 16:50:00,72.0,71.4,29.60,WSW,247,2.2,-999.0,98,-99.99,,,1.21,Acu-Link.com,2013-08-13 20:50:00,
2013-08-13 17:05:00,72.3,71.7,29.60,NNW,337,3.2,-999.0,98,-99.99,,,1.21,Acu-Link.com,2013-08-13 21:05:00,
2013-08-13 17:20:00,71.8,71.2,29.60,West,270,3.2,-999.0,98,-99.99,,,1.21,Acu-Link.com,2013-08-13 21:20:00,
2013-08-13 17:35:00,72.0,71.4,29.60,NW,315,1.1,-999.0,98,-99.99,,,1.21,Acu-Link.com,2013-08-13 21:35:00,
2013-08-13 17:50:00,71.6,71.0,29.61,SSE,157,4.2,-999.0,98,-99.99,,,1.21,Acu-Link.com,2013-08-13 21:50:00,
2013-08-13 18:05:00,71.2,70.6,29.60,WNW,292,1.7,-999.0,98,-99.99,,,1.21,Acu-Link.com,2013-08-13 22:05:00,
2013-08-13 18:20:00,70.2,69.6,29.60,NNW,337,2.7,-999.0,98,-99.99,,,1.21,Acu-Link.com,2013-08-13 22:20:00,
2013-08-13 18:35:00,69.3,68.7,29.61,West,270,4.7,-999.0,98,-99.99,,,1.21,Acu-Link.com,2013-08-13 22:35:00,
2013-08-13 18:50:00,68.9,68.3,29.62,WNW,292,2.7,-999.0,98,-99.99,,,1.21,Acu-Link.com,2013-08-13 22:50:00,
2013-08-13 19:06:00,68.2,67.6,29.62,NNE,22,1.7,-999.0,98,-99.99,,,1.21,Acu-Link.com,2013-08-13 23:06:00,
2013-08-13 19:21:00,67.6,67.0,29.62,ESE,112,1.7,-999.0,98,-99.99,,,1.21,Acu-Link.com,2013-08-13 23:21:00,
2013-08-13 19:36:00,66.9,66.3,29.64,North,0,3.7,-999.0,98,-99.99,,,1.21,Acu-Link.com,2013-08-13 23:36:00,
2013-08-13 19:51:00,66.4,65.8,29.65,NNW,337,1.1,-999.0,98,-99.99,,,1.21,Acu-Link.com,2013-08-13 23:51:00,
2013-08-13 20:06:00,65.8,65.2,29.65,West,270,4.2,-999.0,98,-99.99,,,1.21,Acu-Link.com,2013-08-14 00:06:00,
2013-08-13 20:21:00,65.1,64.5,29.65,West,270,0.0,-999.0,98,-99.99,,,1.21,Acu-Link.com,2013-08-14 00:21:00,
2013-08-13 20:36:00,64.9,64.3,29.65,West,270,2.2,-999.0,98,-99.99,,,1.21,Acu-Link.com,2013-08-14 00:36:00,
2013-08-13 20:51:00,64.8,64.2,29.66,WNW,292,3.2,-999.0,98,-99.99,,,1.21,Acu-Link.com,2013-08-14 00:51:00,
2013-08-13 21:06:00,64.4,63.8,29.68,WNW,292,3.7,-999.0,98,-99.99,,,1.21,Acu-Link.com,2013-08-14 01:06:00,
2013-08-13 21:22:00,63.9,63.3,29.68,WNW,292,4.2,-999.0,98,-99.99,,,1.21,Acu-Link.com,2013-08-14 01:22:00,
2013-08-13 21:37:00,63.0,62.4,29.68,NE,45,5.8,-999.0,98,-99.99,,,1.21,Acu-Link.com,2013-08-14 01:37:00,
2013-08-13 21:52:00,62.4,61.8,29.69,WSW,247,1.7,-999.0,98,-99.99,,,1.21,Acu-Link.com,2013-08-14 01:52:00,
2013-08-13 22:07:00,61.7,61.1,29.69,WNW,292,1.7,-999.0,98,-99.99,,,1.21,Acu-Link.com,2013-08-14 02:07:00,
2013-08-13 22:22:00,61.0,60.4,29.69,WNW,292,1.1,-999.0,98,-99.99,,,1.21,Acu-Link.com,2013-08-14 02:22:00,
2013-08-13 22:37:00,60.4,59.8,29.70,East,90,0.0,-999.0,98,-99.99,,,1.21,Acu-Link.com,2013-08-14 02:37:00,
2013-08-13 22:53:00,60.1,59.5,29.71,NW,315,1.7,-999.0,98,-99.99,,,1.21,Acu-Link.com,2013-08-14 02:53:00,
2013-08-13 23:08:00,59.9,59.3,29.70,SW,225,1.7,-999.0,98,-99.99,,,1.21,Acu-Link.com,2013-08-14 03:08:00,
2013-08-13 23:23:00,59.7,59.1,29.71,West,270,0.0,-999.0,98,-99.99,,,1.21,Acu-Link.com,2013-08-14 03:23:00,
2013-08-13 23:38:00,59.4,58.8,29.70,South,180,0.0,-999.0,98,-99.99,,,1.21,Acu-Link.com,2013-08-14 03:38:00,
2013-08-13 23:53:00,59.4,58.8,29.70,SW,225,0.0,-999.0,98,-99.99,,,1.21,Acu-Link.com,2013-08-14 03:53:00,